createdAt,value
2018-01-07T00:00:27.129Z,4.86
2018-01-07T00:01:27.118Z,4.89
2018-01-07T00:02:27.093Z,4.91
2018-01-07T00:03:26.798Z,4.86
2018-01-07T00:04:26.781Z,4.91
2018-01-07T00:05:26.758Z,4.89
2018-01-07T00:06:26.742Z,4.92
2018-01-07T00:07:26.713Z,4.8
2018-01-07T00:08:26.696Z,4.89
2018-01-07T00:09:26.933Z,4.91
2018-01-07T00:10:26.656Z,4.92
2018-01-07T00:11:26.632Z,4.8
2018-01-07T00:12:26.611Z,4.91
2018-01-07T00:13:26.847Z,4.83
2018-01-07T00:14:26.827Z,4.8
2018-01-07T00:15:26.808Z,4.86
2018-01-07T00:16:26.785Z,4.8
2018-01-07T00:17:26.511Z,4.88
2018-01-07T00:18:26.479Z,4.8
2018-01-07T00:19:26.720Z,4.77
2018-01-07T00:20:26.701Z,4.91
2018-01-07T00:21:26.155Z,4.83
2018-01-07T00:22:26.392Z,4.8
2018-01-07T00:23:26.636Z,4.77
2018-01-07T00:24:26.346Z,4.8
2018-01-07T00:25:26.328Z,4.89
2018-01-07T00:26:26.566Z,4.86
2018-01-07T00:27:26.280Z,4.76
2018-01-07T00:28:26.539Z,4.84
2018-01-07T00:29:26.559Z,4.76
2018-01-07T00:30:26.480Z,4.83
2018-01-07T00:31:26.195Z,4.84
2018-01-07T00:32:26.171Z,4.83
2018-01-07T00:33:26.153Z,4.92
2018-01-07T00:34:26.129Z,4.86
2018-01-07T00:35:26.373Z,4.88
2018-01-07T00:36:26.083Z,4.86
2018-01-07T00:37:25.804Z,4.77
2018-01-07T00:38:26.361Z,4.88
2018-01-07T00:39:26.023Z,4.8
2018-01-07T00:40:26.008Z,4.84
2018-01-07T00:41:25.718Z,4.83
2018-01-07T00:42:25.960Z,4.83
2018-01-07T00:43:25.677Z,4.89
2018-01-07T00:44:25.914Z,4.83
2018-01-07T00:45:26.168Z,4.7
2018-01-07T00:46:25.610Z,4.86
2018-01-07T00:47:26.118Z,4.8
2018-01-07T00:48:26.093Z,4.7
2018-01-07T00:49:26.069Z,4.77
2018-01-07T00:50:25.529Z,4.79
2018-01-07T00:51:25.764Z,4.76
2018-01-07T00:52:26.010Z,4.72
2018-01-07T00:53:25.985Z,4.83
2018-01-07T00:54:25.697Z,4.76
2018-01-07T00:55:25.416Z,4.77
2018-01-07T00:56:25.390Z,4.72
2018-01-07T00:57:25.900Z,4.86
2018-01-07T00:58:25.875Z,4.77
2018-01-07T00:59:25.590Z,4.83
2018-01-07T01:00:25.566Z,4.72
2018-01-07T01:01:25.288Z,4.76
2018-01-07T01:02:25.786Z,4.73
2018-01-07T01:03:25.779Z,4.77
2018-01-07T01:04:25.747Z,4.79
2018-01-07T01:05:25.456Z,4.75
2018-01-07T01:06:25.434Z,4.86
2018-01-07T01:07:25.683Z,4.88
2018-01-07T01:08:25.662Z,4.75
2018-01-07T01:09:25.640Z,4.83
2018-01-07T01:10:25.615Z,4.77
2018-01-07T01:11:25.327Z,4.79
2018-01-07T01:12:25.575Z,4.8
2018-01-07T01:13:25.285Z,4.76
2018-01-07T01:14:25.268Z,4.79
2018-01-07T01:15:24.975Z,4.77
2018-01-07T01:16:25.488Z,4.8
2018-01-07T01:17:25.460Z,4.88
2018-01-07T01:18:25.442Z,4.8
2018-01-07T01:19:25.156Z,4.79
2018-01-07T01:20:25.405Z,4.79
2018-01-07T01:21:25.380Z,4.76
2018-01-07T01:22:25.087Z,4.84
2018-01-07T01:23:25.339Z,4.88
2018-01-07T01:24:25.365Z,4.8
2018-01-07T01:25:25.295Z,4.86
2018-01-07T01:26:24.745Z,4.77
2018-01-07T01:27:25.316Z,4.83
2018-01-07T01:28:24.980Z,4.8
2018-01-07T01:29:24.938Z,4.76
2018-01-07T01:30:25.183Z,4.89
2018-01-07T01:31:24.899Z,4.77
2018-01-07T01:32:24.607Z,4.86
2018-01-07T01:33:25.114Z,4.88
2018-01-07T01:34:24.561Z,4.79
2018-01-07T01:35:25.072Z,4.88
2018-01-07T01:36:24.792Z,4.83
2018-01-07T01:37:24.807Z,4.92
2018-01-07T01:38:24.474Z,4.84
2018-01-07T01:39:24.722Z,4.79
2018-01-07T01:40:24.698Z,4.88
2018-01-07T01:41:24.956Z,4.79
2018-01-07T01:42:24.655Z,4.86
2018-01-07T01:43:24.630Z,4.88
2018-01-07T01:44:24.610Z,4.8
2018-01-07T01:45:24.592Z,4.83
2018-01-07T01:46:24.578Z,4.92
2018-01-07T01:47:24.548Z,4.83
2018-01-07T01:48:24.525Z,4.79
2018-01-07T01:49:24.500Z,4.89
2018-01-07T01:50:24.479Z,4.89
2018-01-07T01:51:24.728Z,4.86
2018-01-07T01:52:24.435Z,4.86
2018-01-07T01:53:24.155Z,4.91
2018-01-07T01:54:24.401Z,4.88
2018-01-07T01:55:24.105Z,4.91
2018-01-07T01:56:24.614Z,4.89
2018-01-07T01:57:24.327Z,4.89
2018-01-07T01:58:24.309Z,4.94
2018-01-07T01:59:24.555Z,4.88
2018-01-07T02:00:23.998Z,4.94
2018-01-07T02:01:24.511Z,4.92
2018-01-07T02:02:24.482Z,4.95
2018-01-07T02:03:24.466Z,4.86
2018-01-07T02:04:24.177Z,4.94
2018-01-07T02:05:24.155Z,4.91
2018-01-07T02:06:24.396Z,4.94
2018-01-07T02:07:24.108Z,4.86
2018-01-07T02:08:24.083Z,4.88
2018-01-07T02:09:24.329Z,4.89
2018-01-07T02:10:24.048Z,4.86
2018-01-07T02:11:23.761Z,4.89
2018-01-07T02:12:23.736Z,4.86
2018-01-07T02:13:23.980Z,4.88
2018-01-07T02:14:24.225Z,4.77
2018-01-07T02:15:23.669Z,4.89
2018-01-07T02:16:23.666Z,4.86
2018-01-07T02:17:23.893Z,4.8
2018-01-07T02:18:24.137Z,4.92
2018-01-07T02:19:23.851Z,4.88
2018-01-07T02:20:24.101Z,4.89
2018-01-07T02:21:23.804Z,4.79
2018-01-07T02:22:23.779Z,4.76
2018-01-07T02:23:23.772Z,4.94
2018-01-07T02:24:24.011Z,4.76
2018-01-07T02:25:23.986Z,4.76
2018-01-07T02:26:23.964Z,4.75
2018-01-07T02:27:23.722Z,4.86
2018-01-07T02:28:23.922Z,4.89
2018-01-07T02:29:23.903Z,4.89
2018-01-07T02:30:24.080Z,4.83
2018-01-07T02:31:23.855Z,4.86
2018-01-07T02:32:23.575Z,4.92
2018-01-07T02:33:23.545Z,4.76
2018-01-07T02:34:23.258Z,4.89
2018-01-07T02:35:23.814Z,4.86
2018-01-07T02:36:23.483Z,4.86
2018-01-07T02:37:23.726Z,4.89
2018-01-07T02:38:23.704Z,4.91
2018-01-07T02:39:23.419Z,4.77
2018-01-07T02:40:23.412Z,4.83
2018-01-07T02:41:23.379Z,4.86
2018-01-07T02:42:23.350Z,4.84
2018-01-07T02:43:23.599Z,4.79
2018-01-07T02:44:23.038Z,4.86
2018-01-07T02:45:23.552Z,4.84
2018-01-07T02:46:23.537Z,4.8
2018-01-07T02:47:23.238Z,4.86
2018-01-07T02:48:22.959Z,4.76
2018-01-07T02:49:22.936Z,4.84
2018-01-07T02:50:23.180Z,4.76
2018-01-07T02:51:23.153Z,4.88
2018-01-07T02:52:22.870Z,4.8
2018-01-07T02:53:23.386Z,4.79
2018-01-07T02:54:22.826Z,4.8
2018-01-07T02:55:23.333Z,4.75
2018-01-07T02:56:23.042Z,4.89
2018-01-07T02:57:23.022Z,4.86
2018-01-07T02:58:23.281Z,4.86
2018-01-07T02:59:23.244Z,4.91
2018-01-07T03:00:22.976Z,4.83
2018-01-07T03:01:22.736Z,4.91
2018-01-07T03:02:22.909Z,4.84
2018-01-07T03:03:23.153Z,4.92
2018-01-07T03:04:22.620Z,4.79
2018-01-07T03:05:22.880Z,4.79
2018-01-07T03:06:23.090Z,4.79
2018-01-07T03:07:23.074Z,4.76
2018-01-07T03:08:23.051Z,4.79
2018-01-07T03:09:23.020Z,4.89
2018-01-07T03:10:22.747Z,4.88
2018-01-07T03:11:22.455Z,4.76
2018-01-07T03:12:22.974Z,4.76
2018-01-07T03:13:22.954Z,4.88
2018-01-07T03:14:22.681Z,4.84
2018-01-07T03:15:22.912Z,4.89
2018-01-07T03:16:22.893Z,4.8
2018-01-07T03:17:22.883Z,4.83
2018-01-07T03:18:22.566Z,4.8
2018-01-07T03:19:22.542Z,4.88
2018-01-07T03:20:22.257Z,4.8
2018-01-07T03:21:22.500Z,4.88
2018-01-07T03:22:22.487Z,4.84
2018-01-07T03:23:22.456Z,4.88
2018-01-07T03:24:22.698Z,4.8
2018-01-07T03:25:22.681Z,4.89
2018-01-07T03:26:22.661Z,4.8
2018-01-07T03:27:22.103Z,4.8
2018-01-07T03:28:22.349Z,4.86
2018-01-07T03:29:22.595Z,4.89
2018-01-07T03:30:22.315Z,4.8
2018-01-07T03:31:22.286Z,4.89
2018-01-07T03:32:22.533Z,4.88
2018-01-07T03:33:22.503Z,4.8
2018-01-07T03:34:21.957Z,4.76
2018-01-07T03:35:22.200Z,4.86
2018-01-07T03:36:22.176Z,4.77
2018-01-07T03:37:22.153Z,4.76
2018-01-07T03:38:22.407Z,4.89
2018-01-07T03:39:22.109Z,4.8
2018-01-07T03:40:22.086Z,4.8
2018-01-07T03:41:21.804Z,4.79
2018-01-07T03:42:22.309Z,4.92
2018-01-07T03:43:22.285Z,4.83
2018-01-07T03:44:22.007Z,4.86
2018-01-07T03:45:21.982Z,4.84
2018-01-07T03:46:21.953Z,4.92
2018-01-07T03:47:22.193Z,4.91
2018-01-07T03:48:21.911Z,4.89
2018-01-07T03:49:21.892Z,4.91
2018-01-07T03:50:22.133Z,4.86
2018-01-07T03:51:22.105Z,4.86
2018-01-07T03:52:22.092Z,4.86
2018-01-07T03:53:21.535Z,4.75
2018-01-07T03:54:21.517Z,4.88
2018-01-07T03:55:22.023Z,4.83
2018-01-07T03:56:21.735Z,4.79
2018-01-07T03:57:21.454Z,4.75
2018-01-07T03:58:21.963Z,4.83
2018-01-07T03:59:21.673Z,4.77
2018-01-07T04:00:21.653Z,4.77
2018-01-07T04:01:21.628Z,4.7
2018-01-07T04:02:21.610Z,4.73
2018-01-07T04:03:21.860Z,4.7
2018-01-07T04:04:21.567Z,4.69
2018-01-07T04:05:21.550Z,4.76
2018-01-07T04:06:21.520Z,4.67
2018-01-07T04:07:21.503Z,4.72
2018-01-07T04:08:21.476Z,4.75
2018-01-07T04:09:21.718Z,4.76
2018-01-07T04:10:21.436Z,4.73
2018-01-07T04:11:21.673Z,4.72
2018-01-07T04:12:21.388Z,4.69
2018-01-07T04:13:21.638Z,4.65
2018-01-07T04:14:21.084Z,4.7
2018-01-07T04:15:21.320Z,4.7
2018-01-07T04:16:21.567Z,4.73
2018-01-07T04:17:21.015Z,4.75
2018-01-07T04:18:21.521Z,4.76
2018-01-07T04:19:21.231Z,4.72
2018-01-07T04:20:20.949Z,4.7
2018-01-07T04:21:21.190Z,4.75
2018-01-07T04:22:21.174Z,4.7
2018-01-07T04:23:21.415Z,4.7
2018-01-07T04:24:21.407Z,4.61
2018-01-07T04:25:21.109Z,4.67
2018-01-07T04:26:21.087Z,4.67
2018-01-07T04:27:21.064Z,4.73
2018-01-07T04:28:21.303Z,4.64
2018-01-07T04:29:21.017Z,4.59
2018-01-07T04:30:21.466Z,4.67
2018-01-07T04:31:20.971Z,4.7
2018-01-07T04:32:20.952Z,4.59
2018-01-07T04:33:21.196Z,4.69
2018-01-07T04:34:21.169Z,4.59
2018-01-07T04:35:20.887Z,4.64
2018-01-07T04:36:20.868Z,4.59
2018-01-07T04:37:21.110Z,4.69
2018-01-07T04:38:20.822Z,4.64
2018-01-07T04:39:20.851Z,4.67
2018-01-07T04:40:21.044Z,4.65
2018-01-07T04:41:21.023Z,4.61
2018-01-07T04:42:21.004Z,4.7
2018-01-07T04:43:20.710Z,4.64
2018-01-07T04:44:20.954Z,4.62
2018-01-07T04:45:20.404Z,4.62
2018-01-07T04:46:20.644Z,4.62
2018-01-07T04:47:20.622Z,4.69
2018-01-07T04:48:20.599Z,4.65
2018-01-07T04:49:20.839Z,4.61
2018-01-07T04:50:20.823Z,4.64
2018-01-07T04:51:20.535Z,4.64
2018-01-07T04:52:20.785Z,4.62
2018-01-07T04:53:20.502Z,4.62
2018-01-07T04:54:20.733Z,4.64
2018-01-07T04:55:20.731Z,4.59
2018-01-07T04:56:20.732Z,4.64
2018-01-07T04:57:20.673Z,4.65
2018-01-07T04:58:20.381Z,4.65
2018-01-07T04:59:20.618Z,4.61
2018-01-07T05:00:20.337Z,4.58
2018-01-07T05:01:20.319Z,4.58
2018-01-07T05:02:20.566Z,4.57
2018-01-07T05:03:20.271Z,4.55
2018-01-07T05:04:20.524Z,4.57
2018-01-07T05:05:20.503Z,4.65
2018-01-07T05:06:20.493Z,4.61
2018-01-07T05:07:20.182Z,4.61
2018-01-07T05:08:20.162Z,4.64
2018-01-07T05:09:20.407Z,4.58
2018-01-07T05:10:20.126Z,4.52
2018-01-07T05:11:20.103Z,4.58
2018-01-07T05:12:19.857Z,4.58
2018-01-07T05:13:20.367Z,4.54
2018-01-07T05:14:20.310Z,4.57
2018-01-07T05:15:20.036Z,4.62
2018-01-07T05:16:20.266Z,4.54
2018-01-07T05:17:20.239Z,4.58
2018-01-07T05:18:19.671Z,4.57
2018-01-07T05:19:19.916Z,4.54
2018-01-07T05:20:19.895Z,4.52
2018-01-07T05:21:20.134Z,4.57
2018-01-07T05:22:20.114Z,4.59
2018-01-07T05:23:19.838Z,4.44
2018-01-07T05:24:20.067Z,4.59
2018-01-07T05:25:20.048Z,4.51
2018-01-07T05:26:19.772Z,4.58
2018-01-07T05:27:19.744Z,4.51
2018-01-07T05:28:19.725Z,4.5
2018-01-07T05:29:19.694Z,4.51
2018-01-07T05:30:19.675Z,4.55
2018-01-07T05:31:19.654Z,4.47
2018-01-07T05:32:19.904Z,4.5
2018-01-07T05:33:19.878Z,4.5
2018-01-07T05:34:19.591Z,4.46
2018-01-07T05:35:19.564Z,4.47
2018-01-07T05:36:19.543Z,4.46
2018-01-07T05:37:19.792Z,4.52
2018-01-07T05:38:19.772Z,4.46
2018-01-07T05:39:19.761Z,4.43
2018-01-07T05:40:19.720Z,4.43
2018-01-07T05:41:19.432Z,4.46
2018-01-07T05:42:19.409Z,4.44
2018-01-07T05:43:19.172Z,4.42
2018-01-07T05:44:19.104Z,4.42
2018-01-07T05:45:19.344Z,4.47
2018-01-07T05:46:19.588Z,4.42
2018-01-07T05:47:19.299Z,4.46
2018-01-07T05:48:19.543Z,4.47
2018-01-07T05:49:19.253Z,4.43
2018-01-07T05:50:19.234Z,4.4
2018-01-07T05:51:19.480Z,4.44
2018-01-07T05:52:18.931Z,4.43
2018-01-07T05:53:19.430Z,4.52
2018-01-07T05:54:19.405Z,4.37
2018-01-07T05:55:18.861Z,4.42
2018-01-07T05:56:19.362Z,4.4
2018-01-07T05:57:19.084Z,4.44
2018-01-07T05:58:19.057Z,4.46
2018-01-07T05:59:19.302Z,4.43
2018-01-07T06:00:19.299Z,4.44
2018-01-07T06:01:18.987Z,4.39
2018-01-07T06:02:18.971Z,4.36
2018-01-07T06:03:18.948Z,4.34
2018-01-07T06:04:19.185Z,4.39
2018-01-07T06:05:18.896Z,4.34
2018-01-07T06:06:18.878Z,4.39
2018-01-07T06:07:18.589Z,4.36
2018-01-07T06:08:19.100Z,4.29
2018-01-07T06:09:18.548Z,4.37
2018-01-07T06:10:19.051Z,4.37
2018-01-07T06:11:18.771Z,4.36
2018-01-07T06:12:18.752Z,4.33
2018-01-07T06:13:18.720Z,4.37
2018-01-07T06:14:18.699Z,4.42
2018-01-07T06:15:18.948Z,4.4
2018-01-07T06:16:18.389Z,4.24
2018-01-07T06:17:18.636Z,4.24
2018-01-07T06:18:18.613Z,4.37
2018-01-07T06:19:18.594Z,4.32
2018-01-07T06:20:18.567Z,4.25
2018-01-07T06:21:18.810Z,4.33
2018-01-07T06:22:18.788Z,4.28
2018-01-07T06:23:18.234Z,4.26
2018-01-07T06:24:18.750Z,4.21
2018-01-07T06:25:18.468Z,4.22
2018-01-07T06:26:18.442Z,4.28
2018-01-07T06:27:18.449Z,4.25
2018-01-07T06:28:18.388Z,4.25
2018-01-07T06:29:18.639Z,4.25
2018-01-07T06:30:18.822Z,4.24
2018-01-07T06:31:18.323Z,4.21
2018-01-07T06:32:18.304Z,4.19
2018-01-07T06:33:18.542Z,4.22
2018-01-07T06:34:18.516Z,4.16
2018-01-07T06:35:18.494Z,4.1
2018-01-07T06:36:18.221Z,4.15
2018-01-07T06:37:18.448Z,4.16
2018-01-07T06:38:18.442Z,4.08
2018-01-07T06:39:18.142Z,4.12
2018-01-07T06:40:18.413Z,4.04
2018-01-07T06:41:18.099Z,4.01
2018-01-07T06:42:18.342Z,3.97
2018-01-07T06:43:18.055Z,4
2018-01-07T06:44:18.319Z,4.06
2018-01-07T06:45:18.013Z,4
2018-01-07T06:46:18.273Z,4.03
2018-01-07T06:47:18.228Z,3.98
2018-01-07T06:48:17.939Z,3.97
2018-01-07T06:49:17.917Z,3.92
2018-01-07T06:50:18.163Z,3.88
2018-01-07T06:51:17.871Z,3.85
2018-01-07T06:52:17.852Z,3.83
2018-01-07T06:53:18.087Z,3.83
2018-01-07T06:54:18.069Z,3.8
2018-01-07T06:55:17.780Z,3.83
2018-01-07T06:56:17.771Z,3.82
2018-01-07T06:57:17.737Z,3.71
2018-01-07T06:58:18.021Z,3.78
2018-01-07T06:59:17.691Z,3.78
2018-01-07T07:00:17.670Z,3.76
2018-01-07T07:01:17.925Z,3.61
2018-01-07T07:02:17.626Z,3.61
2018-01-07T07:03:17.341Z,3.54
2018-01-07T07:04:17.855Z,3.57
2018-01-07T07:05:17.570Z,3.62
2018-01-07T07:06:17.798Z,3.61
2018-01-07T07:07:17.515Z,3.6
2018-01-07T07:08:17.226Z,3.6
2018-01-07T07:09:17.469Z,3.5
2018-01-07T07:10:17.445Z,3.53
2018-01-07T07:11:17.435Z,3.47
2018-01-07T07:12:17.166Z,3.58
2018-01-07T07:13:17.381Z,3.46
2018-01-07T07:14:17.623Z,3.46
2018-01-07T07:15:17.602Z,3.44
2018-01-07T07:16:17.047Z,3.43
2018-01-07T07:17:17.547Z,3.49
2018-01-07T07:18:17.260Z,3.42
2018-01-07T07:19:16.976Z,3.39
2018-01-07T07:20:17.228Z,3.42
2018-01-07T07:21:16.929Z,3.36
2018-01-07T07:22:17.173Z,3.36
2018-01-07T07:23:17.146Z,3.34
2018-01-07T07:24:16.859Z,3.24
2018-01-07T07:25:17.100Z,3.3
2018-01-07T07:26:17.342Z,3.23
2018-01-07T07:27:17.055Z,3.27
2018-01-07T07:28:17.295Z,3.3
2018-01-07T07:29:17.008Z,3.33
2018-01-07T07:30:16.984Z,3.24
2018-01-07T07:31:16.701Z,3.25
2018-01-07T07:32:16.963Z,3.28
2018-01-07T07:33:16.923Z,3.28
2018-01-07T07:34:16.894Z,3.24
2018-01-07T07:35:16.606Z,3.25
2018-01-07T07:36:16.584Z,3.21
2018-01-07T07:37:17.093Z,3.25
2018-01-07T07:38:16.538Z,3.23
2018-01-07T07:39:16.514Z,3.28
2018-01-07T07:40:16.508Z,3.27
2018-01-07T07:41:16.468Z,3.3
2018-01-07T07:42:16.724Z,3.39
2018-01-07T07:43:16.423Z,3.27
2018-01-07T07:44:16.663Z,3.27
2018-01-07T07:45:16.641Z,3.18
2018-01-07T07:46:16.409Z,3.18
2018-01-07T07:47:16.602Z,3.2
2018-01-07T07:48:16.848Z,3.21
2018-01-07T07:49:16.548Z,3.18
2018-01-07T07:50:16.527Z,3.2
2018-01-07T07:51:16.499Z,3.16
2018-01-07T07:52:16.212Z,3.24
2018-01-07T07:53:16.727Z,3.13
2018-01-07T07:54:16.434Z,3.15
2018-01-07T07:55:16.409Z,3.16
2018-01-07T07:56:16.388Z,3.13
2018-01-07T07:57:16.365Z,3.12
2018-01-07T07:58:16.337Z,3.18
2018-01-07T07:59:16.580Z,3.15
2018-01-07T08:00:16.559Z,3.16
2018-01-07T08:01:16.535Z,3.13
2018-01-07T08:02:16.517Z,3.16
2018-01-07T08:03:16.228Z,3.21
2018-01-07T08:04:16.464Z,3.13
2018-01-07T08:05:16.182Z,3.09
2018-01-07T08:06:15.948Z,3.1
2018-01-07T08:07:16.408Z,3.16
2018-01-07T08:08:16.129Z,3.18
2018-01-07T08:09:16.367Z,3.1
2018-01-07T08:10:16.075Z,3.15
2018-01-07T08:11:16.303Z,3.12
2018-01-07T08:12:16.279Z,3.1
2018-01-07T08:13:15.995Z,3.13
2018-01-07T08:14:16.239Z,3.16
2018-01-07T08:15:15.679Z,3.07
2018-01-07T08:16:16.187Z,3.06
2018-01-07T08:17:16.161Z,3.12
2018-01-07T08:18:15.885Z,3.09
2018-01-07T08:19:15.600Z,3.12
2018-01-07T08:20:15.887Z,3.13
2018-01-07T08:21:15.822Z,3.16
2018-01-07T08:22:15.789Z,3.07
2018-01-07T08:23:15.757Z,3.09
2018-01-07T08:24:16.035Z,3.1
2018-01-07T08:25:15.978Z,3.07
2018-01-07T08:26:15.973Z,3.09
2018-01-07T08:27:15.403Z,3.05
2018-01-07T08:28:15.383Z,3.1
2018-01-07T08:29:15.632Z,3.06
2018-01-07T08:30:16.317Z,3.1
2018-01-07T08:31:15.841Z,2.98
2018-01-07T08:32:15.814Z,3.03
2018-01-07T08:33:15.536Z,2.98
2018-01-07T08:34:15.525Z,2.97
2018-01-07T08:35:15.481Z,2.97
2018-01-07T08:36:15.468Z,3.03
2018-01-07T08:37:15.183Z,3
2018-01-07T08:38:15.417Z,2.97
2018-01-07T08:39:15.399Z,2.94
2018-01-07T08:40:15.661Z,2.92
2018-01-07T08:41:15.348Z,2.97
2018-01-07T08:42:15.323Z,2.95
2018-01-07T08:43:15.305Z,2.95
2018-01-07T08:44:15.013Z,3.02
2018-01-07T08:45:15.258Z,2.98
2018-01-07T08:46:15.236Z,2.89
2018-01-07T08:47:15.220Z,2.94
2018-01-07T08:48:15.454Z,3.02
2018-01-07T08:49:15.425Z,2.95
2018-01-07T08:50:15.409Z,2.92
2018-01-07T08:51:15.117Z,2.94
2018-01-07T08:52:14.833Z,2.88
2018-01-07T08:53:15.075Z,2.94
2018-01-07T08:54:15.046Z,2.89
2018-01-07T08:55:15.297Z,2.92
2018-01-07T08:56:14.999Z,3.03
2018-01-07T08:57:15.001Z,2.94
2018-01-07T08:58:14.959Z,3.02
2018-01-07T08:59:14.947Z,3.02
2018-01-07T09:00:15.199Z,2.94
2018-01-07T09:01:15.150Z,2.94
2018-01-07T09:02:14.877Z,2.98
2018-01-07T09:03:15.103Z,2.95
2018-01-07T09:04:15.083Z,2.98
2018-01-07T09:05:15.055Z,3
2018-01-07T09:06:14.777Z,2.98
2018-01-07T09:07:14.750Z,3
2018-01-07T09:08:14.721Z,2.97
2018-01-07T09:09:14.969Z,2.98
2018-01-07T09:10:14.685Z,2.97
2018-01-07T09:11:14.656Z,2.95
2018-01-07T09:12:14.374Z,3.03
2018-01-07T09:13:14.338Z,2.95
2018-01-07T09:14:14.850Z,3.12
2018-01-07T09:15:14.570Z,3.09
2018-01-07T09:16:14.824Z,3.13
2018-01-07T09:17:14.528Z,3.07
2018-01-07T09:18:14.519Z,3.15
2018-01-07T09:19:14.495Z,3.12
2018-01-07T09:21:14.713Z,3.15
2018-01-07T09:22:14.405Z,3.15
2018-01-07T09:23:14.403Z,3.18
2018-01-07T09:24:14.090Z,3.13
2018-01-07T09:25:14.634Z,3.18
2018-01-07T09:26:14.311Z,3.18
2018-01-07T09:27:14.304Z,3.15
2018-01-07T09:28:14.279Z,3.24
2018-01-07T09:29:14.506Z,3.3
2018-01-07T09:30:14.489Z,3.31
2018-01-07T09:31:14.195Z,3.3
2018-01-07T09:32:13.905Z,3.27
2018-01-07T09:33:14.148Z,3.31
2018-01-07T09:34:13.861Z,3.27
2018-01-07T09:35:14.101Z,3.3
2018-01-07T09:36:13.829Z,3.36
2018-01-07T09:37:14.058Z,3.36
2018-01-07T09:38:13.771Z,3.43
2018-01-07T09:39:14.015Z,3.5
2018-01-07T09:40:13.766Z,3.58
2018-01-07T09:41:13.712Z,3.57
2018-01-07T09:42:13.950Z,3.62
2018-01-07T09:43:14.189Z,3.71
2018-01-07T09:44:13.899Z,3.83
2018-01-07T09:45:13.872Z,3.88
2018-01-07T09:46:13.856Z,3.97
2018-01-07T09:47:13.837Z,3.94
2018-01-07T09:48:13.549Z,4
2018-01-07T09:49:13.801Z,4.07
2018-01-07T09:50:13.775Z,4.24
2018-01-07T09:51:13.748Z,4.12
2018-01-07T09:52:14.001Z,4
2018-01-07T09:53:13.713Z,4.04
2018-01-07T09:54:13.694Z,4.07
2018-01-07T09:55:13.653Z,4.08
2018-01-07T09:56:13.643Z,4.12
2018-01-07T09:57:13.898Z,4.33
2018-01-07T09:58:13.613Z,4.32
2018-01-07T09:59:13.304Z,4.33
2018-01-07T10:00:13.579Z,4.29
2018-01-07T10:01:13.882Z,4.32
2018-01-07T10:02:13.775Z,4.29
2018-01-07T10:03:13.487Z,4.29
2018-01-07T10:04:13.826Z,4.32
2018-01-07T10:05:13.443Z,4.25
2018-01-07T10:06:13.684Z,4.26
2018-01-07T10:07:13.207Z,4.24
2018-01-07T10:08:13.400Z,4.15
2018-01-07T10:09:13.362Z,4.08
2018-01-07T10:10:13.338Z,4.14
2018-01-07T10:11:13.325Z,4
2018-01-07T10:12:13.309Z,4.03
2018-01-07T10:13:13.570Z,4
2018-01-07T10:14:13.323Z,3.9
2018-01-07T10:15:13.502Z,3.86
2018-01-07T10:16:13.212Z,3.85
2018-01-07T10:17:13.506Z,3.83
2018-01-07T10:18:13.235Z,3.88
2018-01-07T10:19:13.534Z,3.83
2018-01-07T10:20:13.400Z,3.89
2018-01-07T10:21:13.142Z,3.88
2018-01-07T10:22:13.453Z,3.9
2018-01-07T10:23:13.058Z,3.89
2018-01-07T10:24:13.044Z,3.76
2018-01-07T10:25:13.023Z,3.86
2018-01-07T10:26:13.270Z,3.82
2018-01-07T10:27:12.978Z,3.8
2018-01-07T10:28:13.213Z,3.85
2018-01-07T10:29:12.930Z,3.9
2018-01-07T10:30:12.920Z,3.9
2018-01-07T10:31:12.881Z,4.01
2018-01-07T10:32:12.889Z,4.04
2018-01-07T10:33:12.586Z,4.08
2018-01-07T10:34:12.833Z,3.98
2018-01-07T10:35:12.794Z,4
2018-01-07T10:36:12.779Z,3.94
2018-01-07T10:37:13.032Z,3.96
2018-01-07T10:38:12.738Z,3.97
2018-01-07T10:39:12.718Z,3.97
2018-01-07T10:40:12.702Z,3.97
2018-01-07T10:41:12.410Z,4.1
2018-01-07T10:42:12.377Z,4.04
2018-01-07T10:43:12.630Z,4.15
2018-01-07T10:44:12.893Z,4.08
2018-01-07T10:45:12.337Z,4.06
2018-01-07T10:46:12.559Z,4.08
2018-01-07T10:47:12.286Z,4.03
2018-01-07T10:48:12.780Z,4.1
2018-01-07T10:49:12.775Z,4.06
2018-01-07T10:50:12.487Z,3.98
2018-01-07T10:51:12.715Z,4.14
2018-01-07T10:52:12.722Z,3.92
2018-01-07T10:53:12.450Z,4.14
2018-01-07T10:54:12.384Z,4.06
2018-01-07T10:55:44.486Z,4.07
2018-01-07T10:56:12.342Z,4
2018-01-07T10:57:12.329Z,4.1
2018-01-07T10:58:12.044Z,4.06
2018-01-07T10:59:12.554Z,4.06
2018-01-07T11:00:12.270Z,3.92
2018-01-07T11:01:11.976Z,4.15
2018-01-07T11:02:12.248Z,4.08
2018-01-07T11:03:12.193Z,4.15
2018-01-07T11:04:12.169Z,4.07
2018-01-07T11:05:12.160Z,4.18
2018-01-07T11:06:12.404Z,4.14
2018-01-07T11:07:12.382Z,4.15
2018-01-07T11:08:12.085Z,4.22
2018-01-07T11:09:11.795Z,4.26
2018-01-07T11:10:11.774Z,4.32
2018-01-07T11:11:12.020Z,4.33
2018-01-07T11:12:12.002Z,4.33
2018-01-07T11:13:11.706Z,4.37
2018-01-07T11:14:12.216Z,4.34
2018-01-07T11:15:12.195Z,4.29
2018-01-07T11:16:12.186Z,4.34
2018-01-07T11:17:12.161Z,4.4
2018-01-07T11:18:11.887Z,4.44
2018-01-07T11:19:11.870Z,4.4
2018-01-07T11:20:11.826Z,4.4
2018-01-07T11:21:11.871Z,4.5
2018-01-07T11:22:11.783Z,4.4
2018-01-07T11:23:12.031Z,4.42
2018-01-07T11:24:11.750Z,4.5
2018-01-07T11:25:11.717Z,4.47
2018-01-07T11:26:11.960Z,4.59
2018-01-07T11:27:11.410Z,4.57
2018-01-07T11:28:11.919Z,4.59
2018-01-07T11:29:11.901Z,4.69
2018-01-07T11:30:11.614Z,4.69
2018-01-07T11:31:11.855Z,4.72
2018-01-07T11:32:11.864Z,4.76
2018-01-07T11:33:11.570Z,4.76
2018-01-07T11:34:11.530Z,4.65
2018-01-07T11:35:11.778Z,4.73
2018-01-07T11:36:11.489Z,4.77
2018-01-07T11:37:11.790Z,4.62
2018-01-07T11:38:11.456Z,4.64
2018-01-07T11:39:11.434Z,4.76
2018-01-07T11:40:11.399Z,4.59
2018-01-07T11:41:11.387Z,4.61
2018-01-07T11:42:11.104Z,4.59
2018-01-07T11:43:11.350Z,4.58
2018-01-07T11:44:11.634Z,4.61
2018-01-07T11:45:11.567Z,4.62
2018-01-07T11:46:11.275Z,4.59
2018-01-07T11:47:11.306Z,4.64
2018-01-07T11:48:11.508Z,4.57
2018-01-07T11:49:11.484Z,4.65
2018-01-07T11:50:11.471Z,4.62
2018-01-07T11:51:11.445Z,4.64
2018-01-07T11:52:11.419Z,4.73
2018-01-07T11:53:11.397Z,4.64
2018-01-07T11:54:11.110Z,4.62
2018-01-07T11:55:10.834Z,4.61
2018-01-07T11:56:11.349Z,4.67
2018-01-07T11:57:10.818Z,4.65
2018-01-07T11:58:10.771Z,4.59
2018-01-07T11:59:11.015Z,4.62
2018-01-07T12:00:10.776Z,4.69
2018-01-07T12:01:10.974Z,4.65
2018-01-07T12:02:11.219Z,4.65
2018-01-07T12:03:11.202Z,4.61
2018-01-07T12:04:10.637Z,4.61
2018-01-07T12:05:10.621Z,4.61
2018-01-07T12:06:10.870Z,4.55
2018-01-07T12:07:10.840Z,4.62
2018-01-07T12:08:11.085Z,4.65
2018-01-07T12:09:11.067Z,4.65
2018-01-07T12:10:11.061Z,4.69
2018-01-07T12:11:11.026Z,4.7
2018-01-07T12:12:10.738Z,4.7
2018-01-07T12:13:10.720Z,4.72
2018-01-07T12:14:11.004Z,4.61
2018-01-07T12:15:10.992Z,4.79
2018-01-07T12:16:10.660Z,4.83
2018-01-07T12:17:10.892Z,4.89
2018-01-07T12:18:10.610Z,4.96
2018-01-07T12:19:10.590Z,4.99
2018-01-07T12:20:10.570Z,4.98
2018-01-07T12:21:10.859Z,4.83
2018-01-07T12:22:10.797Z,4.89
2018-01-07T12:23:10.516Z,4.95
2018-01-07T12:24:10.752Z,5.05
2018-01-07T12:25:10.470Z,5.07
2018-01-07T12:26:10.181Z,5.17
2018-01-07T12:27:10.425Z,5.22
2018-01-07T12:28:10.410Z,5.27
2018-01-07T12:29:10.123Z,5.31
2018-01-07T12:30:10.369Z,5.45
2018-01-07T12:31:10.853Z,5.43
2018-01-07T12:32:10.063Z,5.52
2018-01-07T12:33:10.372Z,5.74
2018-01-07T12:34:10.700Z,5.55
2018-01-07T12:35:10.353Z,5.46
2018-01-07T12:36:10.258Z,5.55
2018-01-07T12:37:10.510Z,5.78
2018-01-07T12:38:09.941Z,5.64
2018-01-07T12:39:10.194Z,5.59
2018-01-07T12:40:09.903Z,5.45
2018-01-07T12:41:10.166Z,5.56
2018-01-07T12:42:10.398Z,5.57
2018-01-07T12:43:10.117Z,5.82
2018-01-07T12:44:10.088Z,5.96
2018-01-07T12:45:10.340Z,6.26
2018-01-07T12:46:10.313Z,6.62
2018-01-07T12:47:10.032Z,6.86
2018-01-07T12:48:10.020Z,7.32
2018-01-07T12:49:10.021Z,7.71
2018-01-07T12:50:10.248Z,7.49
2018-01-07T12:51:09.960Z,7.63
2018-01-07T12:52:09.680Z,7.63
2018-01-07T12:53:09.927Z,7.6
2018-01-07T12:54:09.906Z,7.71
2018-01-07T12:55:09.888Z,7.35
2018-01-07T12:56:09.874Z,7.38
2018-01-07T12:57:09.855Z,7.58
2018-01-07T12:58:10.193Z,7.62
2018-01-07T12:59:09.829Z,8.03
2018-01-07T13:00:09.825Z,8.08
2018-01-07T13:01:10.048Z,8.3
2018-01-07T13:02:10.050Z,8.68
2018-01-07T13:03:09.747Z,8.86
2018-01-07T13:04:10.006Z,9.12
2018-01-07T13:05:09.453Z,8.99
2018-01-07T13:06:10.164Z,9.15
2018-01-07T13:07:09.971Z,8.93
2018-01-07T13:08:09.673Z,9.13
2018-01-07T13:09:09.662Z,9.43
2018-01-07T13:10:09.646Z,9.38
2018-01-07T13:11:09.892Z,9.24
2018-01-07T13:12:09.608Z,9.21
2018-01-07T13:13:09.592Z,9.35
2018-01-07T13:14:09.577Z,9.1
2018-01-07T13:15:09.621Z,8.96
2018-01-07T13:16:09.284Z,9.04
2018-01-07T13:17:09.537Z,9.28
2018-01-07T13:18:09.521Z,9.02
2018-01-07T13:19:09.505Z,9.13
2018-01-07T13:20:09.227Z,9.28
2018-01-07T13:21:09.746Z,9.1
2018-01-07T13:22:09.728Z,9.06
2018-01-07T13:23:09.181Z,9.27